KLAR/LAR METAR and TAF weather

Enter ICAO airport designator
Station Type Date Time Source
KLAR METAR 2023/01/30 09:53 UTC NOAA

KLAR 300953Z AUTO 16004KT 3SM -SN OVC046 M22/M25 A2982 RMK AO2 SNE10B37 SLP225 P0000 T12221250


Station Type Date Time Source
KLAR Decoded METAR 2023/01/30 09:53 UTC NOAA

LARAMIE REGIONAL AIRPORT, WY, United States (KLAR) 41-19N 105-40W 2216M
Jan 30, 2023 - 04:53 AM EST / 2023.01.30 0953 UTC
Wind: from the SSE (160 degrees) at 5 MPH (4 KT):0
Visibility: 3 mile(s):0
Sky conditions: overcast
Weather: light snow
Precipitation last hour: A trace
Temperature: -8.0 F (-22.2 C)
Windchill: -20 F (-29 C):2
Dew Point: -13.0 F (-25.0 C)
Relative Humidity: 77%
Pressure (altimeter): 29.82 in. Hg (1009 hPa)
ob: KLAR 300953Z AUTO 16004KT 3SM -SN OVC046 M22/M25 A2982 RMK AO2 SNE10B37 SLP225 P0000 T12221250
cycle: 10

Station Type Date Time Source
KLAR TAF 2023/01/30 06:22 UTC NOAA

TAF KLAR 300520Z 3006/3106 14007KT P6SM BKN040 OVC050
TEMPO 3006/3009 4SM -SN
FM301500 32010KT P6SM OVC035
FM310000 26010KT P6SM SKC

Example: see airport list